Time;durP1;ratioP1;P1;durP2;ratioP2;P2;SDS_P1;SDS_P2;PMS_P1;PMS_P2;Temp;Humidity;BMP_temperature;BMP_pressure;BME280_temperature;BME280_humidity;BME280_pressure;Samples;Min_cycle;Max_cycle;Signal;HPM_P1;HPM_P2
2023/05/05 00:00:25;;;;;;;6.15;5.22;;;;;;;13.21;83.76;101282.31;1052309;28;20352;-79
2023/05/05 00:00:56;;;;;;;6.55;5.55;;;;;;;13.22;82.14;101275.13;1052614;28;20325;-79
2023/05/05 00:01:28;;;;;;;8.45;5.40;;;;;;;13.21;80.87;101279.66;1052083;28;20297;-80
2023/05/05 00:01:59;;;;;;;7.55;4.57;;;;;;;13.19;79.16;101276.38;1052283;28;20298;-79
2023/05/05 00:02:31;;;;;;;6.30;5.22;;;;;;;13.13;79.50;101271.06;1052231;28;20656;-79
2023/05/05 00:03:02;;;;;;;7.93;5.75;;;;;;;13.17;80.64;101272.28;1049675;28;20442;-79
2023/05/05 00:03:34;;;;;;;7.25;5.82;;;;;;;13.07;80.32;101267.41;1051932;28;20399;-79
2023/05/05 00:04:06;;;;;;;5.38;4.78;;;;;;;12.95;81.07;101274.53;1052017;28;20309;-79
2023/05/05 00:04:38;;;;;;;7.18;5.03;;;;;;;13.20;80.31;101271.84;1051818;28;20297;-79
2023/05/05 00:05:09;;;;;;;6.65;4.93;;;;;;;13.32;79.50;101263.88;1051936;28;20302;-79
2023/05/05 00:05:41;;;;;;;5.18;4.68;;;;;;;13.33;77.84;101261.00;1051967;28;20305;-79
2023/05/05 00:06:13;;;;;;;6.53;4.72;;;;;;;13.32;77.00;101263.88;1051989;28;20297;-80
2023/05/05 00:06:45;;;;;;;10.32;4.68;;;;;;;13.33;75.94;101254.81;1052223;28;20290;-79
2023/05/05 00:07:16;;;;;;;12.52;4.80;;;;;;;13.29;75.71;101257.94;1047733;28;20294;-79
2023/05/05 00:07:48;;;;;;;10.13;5.22;;;;;;;13.23;77.40;101261.53;1048212;28;20823;-79
2023/05/05 00:08:20;;;;;;;6.03;5.38;;;;;;;13.22;76.20;101265.22;1047749;28;20279;-79
2023/05/05 00:08:52;;;;;;;7.28;4.72;;;;;;;13.28;75.77;101259.00;1044233;28;20291;-79
2023/05/05 00:09:23;;;;;;;7.40;5.55;;;;;;;13.29;75.59;101255.28;1043736;28;20350;-79
2023/05/05 00:09:55;;;;;;;5.70;4.95;;;;;;;13.38;75.39;101255.78;1044247;28;20389;-79
2023/05/05 00:10:27;;;;;;;8.57;4.90;;;;;;;13.31;75.65;101257.72;1048194;28;20291;-80
2023/05/05 00:10:58;;;;;;;7.80;5.32;;;;;;;13.23;77.49;101266.88;1051982;28;20298;-79
2023/05/05 00:11:30;;;;;;;9.20;5.78;;;;;;;13.19;79.28;101268.34;1051806;28;20306;-79
2023/05/05 00:12:02;;;;;;;5.53;5.03;;;;;;;13.20;79.34;101278.03;1052052;28;20298;-79
2023/05/05 00:12:33;;;;;;;7.82;5.10;;;;;;;13.10;81.36;101271.50;1048368;28;20385;-79
2023/05/05 00:13:05;;;;;;;8.40;5.10;;;;;;;13.17;81.51;101267.75;1051663;28;20302;-79
2023/05/05 00:13:37;;;;;;;8.15;6.25;;;;;;;13.20;80.72;101261.16;1052318;28;20375;-80
2023/05/05 00:14:10;;;;;;;7.75;5.63;;;;;;;12.96;81.76;101262.81;1052135;28;20298;-79
2023/05/05 00:14:41;;;;;;;6.05;5.40;;;;;;;12.82;82.92;101263.97;1051726;28;20305;-79
2023/05/05 00:15:13;;;;;;;8.77;5.25;;;;;;;12.80;83.27;101266.03;1052014;28;20040;-79
2023/05/05 00:15:45;;;;;;;5.93;5.40;;;;;;;12.76;82.68;101267.53;1052162;28;20403;-80
2023/05/05 00:16:17;;;;;;;7.47;4.82;;;;;;;12.87;82.26;101256.09;1046360;28;20306;-79
2023/05/05 00:16:49;;;;;;;6.38;5.78;;;;;;;13.09;80.85;101260.00;1051802;28;20298;-79
2023/05/05 00:17:21;;;;;;;8.75;6.28;;;;;;;13.15;80.43;101258.31;1051942;28;20306;-79
2023/05/05 00:17:52;;;;;;;5.32;4.93;;;;;;;13.15;80.59;101253.78;1051884;28;20290;-79
2023/05/05 00:18:24;;;;;;;7.80;5.13;;;;;;;13.06;80.17;101255.09;1052138;28;20305;-79
2023/05/05 00:18:56;;;;;;;13.45;6.20;;;;;;;13.11;77.81;101252.56;1052211;28;20294;-79
2023/05/05 00:19:27;;;;;;;13.23;5.80;;;;;;;13.12;78.05;101259.53;1052538;28;20294;-80
2023/05/05 00:19:59;;;;;;;7.53;5.30;;;;;;;13.14;79.24;101264.66;1052235;28;20290;-79
2023/05/05 00:20:31;;;;;;;25.52;6.95;;;;;;;13.01;80.27;101257.63;1052200;28;20297;-79
2023/05/05 00:21:03;;;;;;;67.85;11.07;;;;;;;13.00;81.35;101262.16;1051688;28;20302;-79
2023/05/05 00:21:35;;;;;;;85.13;12.50;;;;;;;12.92;81.67;101264.31;1048071;28;20337;-79
2023/05/05 00:22:06;;;;;;;63.88;13.95;;;;;;;12.83;81.98;101265.59;1047601;28;20653;-80
2023/05/05 00:22:38;;;;;;;77.10;12.80;;;;;;;12.78;83.02;101268.13;1043925;28;20307;-79
2023/05/05 00:23:09;;;;;;;81.68;11.30;;;;;;;12.85;83.62;101258.19;1044371;28;20288;-79
2023/05/05 00:23:41;;;;;;;75.15;12.90;;;;;;;12.89;82.83;101262.06;1045114;28;20291;-80
2023/05/05 00:24:12;;;;;;;47.50;11.90;;;;;;;12.90;82.22;101255.69;1043792;28;20295;-79
2023/05/05 00:24:44;;;;;;;38.38;9.50;;;;;;;12.90;82.47;101261.84;1048194;28;20337;-80
2023/05/05 00:25:16;;;;;;;29.25;8.13;;;;;;;12.67;83.32;101261.66;1051972;28;20298;-79
2023/05/05 00:25:47;;;;;;;47.10;8.75;;;;;;;12.71;83.29;101257.50;1052038;28;20043;-80
2023/05/05 00:26:20;;;;;;;52.45;8.45;;;;;;;12.65;84.42;101264.56;1051994;28;20427;-79
2023/05/05 00:26:54;;;;;;;59.42;10.30;;;;;;;12.62;85.37;101253.47;1051620;28;20963;-79
2023/05/05 00:27:25;;;;;;;32.63;9.40;;;;;;;13.03;85.02;101260.88;1052328;28;20040;-79
2023/05/05 00:27:57;;;;;;;26.65;7.78;;;;;;;13.15;82.18;101251.09;1047577;28;20469;-79
2023/05/05 00:28:29;;;;;;;27.15;10.20;;;;;;;13.24;81.08;101244.44;1048202;28;20306;-80
2023/05/05 00:29:01;;;;;;;30.05;7.85;;;;;;;13.34;80.15;101251.09;1047317;28;20298;-79
2023/05/05 00:29:32;;;;;;;18.38;6.80;;;;;;;13.17;79.81;101246.38;1043584;28;20307;-79
2023/05/05 00:30:05;;;;;;;14.25;6.75;;;;;;;13.19;79.49;101243.47;1039937;28;20311;-79
2023/05/05 00:30:38;;;;;;;18.15;7.60;;;;;;;13.11;80.04;101246.38;1043881;28;20549;-79
2023/05/05 00:31:10;;;;;;;21.25;7.35;;;;;;;13.01;81.74;101252.25;1040345;28;20710;-79
2023/05/05 00:31:41;;;;;;;16.90;6.80;;;;;;;12.98;82.76;101258.06;1040060;28;20306;-79
2023/05/05 00:32:13;;;;;;;7.85;6.20;;;;;;;12.94;82.48;101249.66;1039320;28;20091;-79
2023/05/05 00:32:48;;;;;;;18.80;8.70;;;;;;;12.97;84.10;101245.72;1040408;28;20292;-79
2023/05/05 00:33:19;;;;;;;17.58;6.30;;;;;;;12.92;85.11;101251.75;1048883;28;20298;-79
2023/05/05 00:33:51;;;;;;;11.27;5.82;;;;;;;12.94;82.88;101251.53;1044252;28;20303;-79
2023/05/05 00:34:23;;;;;;;10.02;5.72;;;;;;;12.79;85.62;101261.75;1043385;28;20674;-79
2023/05/05 00:34:55;;;;;;;8.20;6.22;;;;;;;12.54;86.39;101257.22;1043222;28;20315;-79
2023/05/05 00:35:26;;;;;;;9.52;5.90;;;;;;;12.49;86.27;101254.41;1043479;28;20346;-79
2023/05/05 00:35:58;;;;;;;8.80;6.00;;;;;;;12.57;86.72;101254.13;1048052;28;20302;-79
2023/05/05 00:36:30;;;;;;;6.75;6.07;;;;;;;12.86;83.20;101255.28;1051797;28;20788;-79
2023/05/05 00:37:02;;;;;;;12.23;5.70;;;;;;;12.88;81.19;101239.88;1048041;28;20318;-79
2023/05/05 00:37:33;;;;;;;12.00;6.03;;;;;;;12.92;80.79;101253.59;1045437;28;20307;-79
2023/05/05 00:38:05;;;;;;;6.10;5.32;;;;;;;12.77;82.19;101250.44;1043321;28;20310;-79
2023/05/05 00:38:37;;;;;;;7.63;5.82;;;;;;;12.76;82.48;101254.16;1040700;28;20315;-79
2023/05/05 00:39:09;;;;;;;11.57;5.60;;;;;;;12.68;83.46;101250.75;1047871;28;20305;-80
2023/05/05 00:39:43;;;;;;;11.52;6.65;;;;;;;12.68;84.52;101258.75;1048264;28;20294;-79
2023/05/05 00:40:15;;;;;;;6.97;5.70;;;;;;;12.68;85.45;101263.28;1044095;28;20798;-79
2023/05/05 00:40:46;;;;;;;6.70;6.10;;;;;;;12.73;86.18;101270.66;1047498;28;20310;-79
2023/05/05 00:41:18;;;;;;;7.25;6.05;;;;;;;12.74;86.86;101269.59;1043792;28;20793;-79
2023/05/05 00:41:49;;;;;;;7.75;5.82;;;;;;;12.67;86.85;101273.16;1043938;28;20314;-79
2023/05/05 00:42:21;;;;;;;9.38;5.65;;;;;;;12.64;86.38;101262.91;1047565;28;20661;-79
2023/05/05 00:42:53;;;;;;;5.95;5.32;;;;;;;12.68;85.72;101253.41;1043715;28;20076;-79
2023/05/05 00:43:24;;;;;;;7.72;5.47;;;;;;;12.72;86.33;101259.13;1047541;28;20119;-79
2023/05/05 00:43:56;;;;;;;14.55;5.88;;;;;;;12.76;87.04;101262.19;1043414;28;20721;-79
2023/05/05 00:44:37;;;;;;;11.07;5.45;;;;;;;12.76;85.31;101264.84;1044034;28;20821;-79
2023/05/05 00:45:10;;;;;;;6.07;5.50;;;;;;;12.84;87.20;101259.22;1039303;28;20303;-79
2023/05/05 00:45:46;;;;;;;7.35;5.65;;;;;;;12.72;88.25;101261.00;1043470;28;20041;-79
2023/05/05 00:46:25;;;;;;;7.20;5.70;;;;;;;12.66;88.06;101273.38;1041846;28;20342;-79
2023/05/05 00:46:57;;;;;;;9.85;5.40;;;;;;;12.81;87.77;101262.34;1051007;28;20526;-79
2023/05/05 00:47:29;;;;;;;10.00;5.55;;;;;;;13.21;86.94;101263.59;1056110;28;20301;-79
2023/05/05 00:48:00;;;;;;;9.18;5.72;;;;;;;13.36;84.53;101255.19;1053148;28;20381;-79
2023/05/05 00:48:32;;;;;;;6.03;5.35;;;;;;;13.24;82.59;101249.78;1051234;28;20297;-79
2023/05/05 00:49:05;;;;;;;12.35;6.13;;;;;;;13.24;82.16;101249.78;1047816;28;20298;-79
2023/05/05 00:49:37;;;;;;;11.35;7.32;;;;;;;13.17;81.88;101249.03;1041467;28;20645;-79
2023/05/05 00:50:10;;;;;;;6.50;5.53;;;;;;;13.16;82.40;101250.06;1044066;28;20089;-79
2023/05/05 00:50:43;;;;;;;7.95;6.10;;;;;;;13.22;83.27;101249.19;1044671;28;20291;-79
2023/05/05 00:51:15;;;;;;;6.25;5.68;;;;;;;13.42;82.00;101245.44;1043668;28;20299;-79
2023/05/05 00:51:47;;;;;;;9.82;6.70;;;;;;;13.47;82.00;101241.06;1044528;28;20372;-79
2023/05/05 00:52:19;;;;;;;10.00;6.47;;;;;;;13.28;81.22;101242.13;1044103;28;20802;-80
2023/05/05 00:52:53;;;;;;;6.97;6.28;;;;;;;13.32;81.38;101237.13;1039677;28;20974;-79
2023/05/05 00:53:26;;;;;;;8.68;6.55;;;;;;;13.27;80.63;101240.47;1043564;28;20045;-80
2023/05/05 00:53:57;;;;;;;6.60;5.95;;;;;;;13.28;80.59;101242.94;1040651;28;20845;-79
2023/05/05 00:54:29;;;;;;;7.03;6.32;;;;;;;13.36;79.62;101236.44;1045202;28;20303;-79
2023/05/05 00:55:01;;;;;;;8.27;6.65;;;;;;;13.38;78.42;101237.03;1043044;28;20299;-79
2023/05/05 00:55:33;;;;;;;9.38;5.95;;;;;;;13.36;79.43;101241.00;1041796;28;20300;-79
2023/05/05 00:56:05;;;;;;;8.52;6.53;;;;;;;13.39;78.78;101244.03;1041390;28;20376;-79
2023/05/05 00:56:37;;;;;;;8.85;6.38;;;;;;;13.42;78.72;101248.09;1044445;28;20047;-79
2023/05/05 00:57:09;;;;;;;6.70;5.45;;;;;;;13.39;79.48;101244.03;1047360;28;20306;-79
2023/05/05 00:57:41;;;;;;;10.93;6.05;;;;;;;13.39;78.33;101243.22;1047409;28;20298;-79
2023/05/05 00:58:13;;;;;;;7.78;5.93;;;;;;;13.42;78.67;101237.41;1039170;28;20292;-79
2023/05/05 00:58:45;;;;;;;8.90;5.63;;;;;;;13.39;78.33;101243.22;1035982;28;20296;-79
2023/05/05 00:59:17;;;;;;;9.18;6.10;;;;;;;13.56;78.90;101238.88;1035217;28;20060;-79
2023/05/05 00:59:49;;;;;;;13.05;6.28;;;;;;;13.70;78.30;101235.00;1036163;28;20320;-80
2023/05/05 01:00:20;;;;;;;7.85;5.90;;;;;;;13.74;77.38;101236.19;1040466;28;20794;-79
2023/05/05 01:00:52;;;;;;;7.13;6.05;;;;;;;13.74;77.48;101236.19;1044518;28;20407;-79
2023/05/05 01:01:24;;;;;;;9.68;5.95;;;;;;;13.73;77.55;101237.22;1051714;28;20051;-79
2023/05/05 01:01:56;;;;;;;9.35;6.45;;;;;;;13.65;77.79;101236.69;1047736;28;20301;-79
2023/05/05 01:02:29;;;;;;;9.23;6.38;;;;;;;13.68;79.68;101237.06;1043845;28;20295;-80
2023/05/05 01:03:01;;;;;;;6.32;5.72;;;;;;;13.65;79.13;101242.06;1043114;28;20303;-79
2023/05/05 01:03:38;;;;;;;7.00;6.15;;;;;;;13.66;78.44;101239.16;1044650;28;20284;-80
2023/05/05 01:04:09;;;;;;;11.50;6.10;;;;;;;13.71;78.31;101233.97;1045163;28;20642;-79
2023/05/05 01:04:41;;;;;;;9.35;6.03;;;;;;;13.67;77.48;101230.06;1044093;28;20045;-79
2023/05/05 01:05:14;;;;;;;6.75;6.15;;;;;;;13.55;76.91;101234.56;1043331;28;20033;-79
2023/05/05 01:06:14;;;;;;;8.10;6.75;;;;;;;13.37;76.97;101226.56;1044115;28;20543;-79
2023/05/05 01:06:51;;;;;;;9.70;6.68;;;;;;;13.44;77.61;101230.00;1047479;28;20306;-79
2023/05/05 01:07:42;;;;;;;9.00;6.47;;;;;;;13.21;80.52;101236.03;1051811;28;20715;-78
2023/05/05 01:09:00;;;;;;;7.28;6.18;;;;;;;13.35;82.06;101242.03;1050393;28;20037;-79
2023/05/05 01:09:46;;;;;;;11.82;7.25;;;;;;;13.28;81.63;101226.88;1034362;28;20835;-79
2023/05/05 01:10:41;;;;;;;7.97;5.85;;;;;;;13.26;82.31;101231.63;1029333;28;20306;-79
2023/05/05 01:11:22;;;;;;;7.20;5.97;;;;;;;13.48;82.12;101228.50;1023040;28;20299;-79
2023/05/05 01:12:02;;;;;;;12.25;7.00;;;;;;;13.57;80.38;101224.47;1020058;29;20052;-79
2023/05/05 01:12:43;;;;;;;6.53;5.88;;;;;;;13.39;80.24;101232.50;1041938;28;20053;-79
2023/05/05 01:13:36;;;;;;;9.55;6.38;;;;;;;13.31;80.30;101230.97;1051085;28;20593;-79
2023/05/05 01:14:15;;;;;;;7.55;5.90;;;;;;;13.36;79.63;101228.44;1047091;28;20047;-79
2023/05/05 01:14:53;;;;;;;7.47;6.07;;;;;;;13.40;78.93;101229.59;1043444;28;20357;-79
2023/05/05 01:15:33;;;;;;;8.55;6.05;;;;;;;13.40;80.55;101229.59;1039074;28;20304;-79
2023/05/05 01:16:15;;;;;;;8.82;6.20;;;;;;;13.49;80.04;101227.47;1042780;28;20307;-79
2023/05/05 01:16:59;;;;;;;7.38;6.28;;;;;;;13.41;78.35;101217.03;1047808;28;20832;-79
2023/05/05 01:17:37;;;;;;;6.78;5.78;;;;;;;13.45;77.92;101223.59;1043311;28;20307;-79
2023/05/05 01:18:15;;;;;;;7.18;5.95;;;;;;;13.41;78.65;101223.22;1043182;28;20303;-79
2023/05/05 01:19:00;;;;;;;8.05;5.88;;;;;;;13.18;81.60;101231.94;1039287;28;20326;-79
2023/05/05 01:19:34;;;;;;;6.18;5.57;;;;;;;13.19;82.78;101233.59;1041122;28;20712;-79
2023/05/05 01:20:15;;;;;;;7.30;5.60;;;;;;;13.22;81.58;101235.00;1046550;28;20302;-80
2023/05/05 01:21:05;;;;;;;8.98;6.03;;;;;;;13.20;80.73;101229.88;1047743;28;20301;-79
2023/05/05 01:21:46;;;;;;;6.95;6.25;;;;;;;13.23;81.30;101228.59;1047145;28;20032;-80
2023/05/05 01:22:18;;;;;;;;;;;;;;;13.35;81.51;101228.66;1048072;28;20299;-79
2023/05/05 01:22:54;;;;;;;6.93;6.20;;;;;;;13.26;81.46;101231.63;1049340;28;19924;-79
2023/05/05 01:23:58;;;;;;;9.70;6.63;;;;;;;13.37;82.52;101231.91;1054340;28;20795;-79
2023/05/05 01:24:38;;;;;;;8.52;6.25;;;;;;;13.18;82.69;101237.31;1045378;28;20290;-79
2023/05/05 01:25:22;;;;;;;11.15;6.15;;;;;;;13.12;82.73;101231.97;1047897;28;20407;-79
2023/05/05 01:26:04;;;;;;;9.32;7.40;;;;;;;13.22;82.24;101233.13;1050919;28;20356;-79
2023/05/05 01:26:58;;;;;;;8.35;5.97;;;;;;;13.23;82.14;101229.41;1051729;28;20297;-79
2023/05/05 01:27:43;;;;;;;7.20;5.85;;;;;;;13.09;85.02;101243.94;1049956;28;20310;-79
2023/05/05 01:28:18;;;;;;;12.55;6.50;;;;;;;13.07;85.31;101246.03;1050120;28;20732;-79
2023/05/05 01:29:06;;;;;;;7.50;6.38;;;;;;;13.00;85.22;101245.28;1045698;28;20303;-79
2023/05/05 01:29:53;;;;;;;7.53;5.55;;;;;;;12.89;84.14;101243.34;1047513;28;20045;-79
2023/05/05 01:30:53;;;;;;;11.43;5.88;;;;;;;12.89;84.02;101238.81;1046574;28;20294;-79
2023/05/05 01:31:51;;;;;;;10.35;7.22;;;;;;;12.98;85.60;101244.69;1050398;28;20793;-79
2023/05/05 01:32:25;;;;;;;6.85;5.88;;;;;;;13.32;85.31;101248.66;1047468;28;20037;-79
2023/05/05 01:33:01;;;;;;;6.10;5.47;;;;;;;13.21;83.71;101244.88;1043371;28;20306;-79
2023/05/05 01:33:53;;;;;;;7.22;5.95;;;;;;;13.02;85.51;101248.56;1047203;28;20302;-79
2023/05/05 01:34:28;;;;;;;8.85;6.25;;;;;;;13.11;84.67;101244.53;1043203;28;20314;-79
2023/05/05 01:35:14;;;;;;;7.28;6.55;;;;;;;13.35;84.29;101244.72;1047592;28;20301;-79
2023/05/05 01:35:51;;;;;;;7.20;6.50;;;;;;;13.28;83.65;101242.94;1047177;28;20371;-79
2023/05/05 01:36:27;;;;;;;12.98;7.47;;;;;;;13.31;83.74;101233.63;1047531;28;20299;-79
2023/05/05 01:37:09;;;;;;;6.55;5.93;;;;;;;13.40;83.49;101234.13;1043384;28;20327;-79
2023/05/05 01:37:51;;;;;;;6.70;6.00;;;;;;;13.50;82.95;101229.09;1046559;28;20299;-79
2023/05/05 01:38:32;;;;;;;9.20;5.93;;;;;;;13.56;81.91;101228.19;1037507;28;20488;-79
2023/05/05 01:39:08;;;;;;;11.82;7.28;;;;;;;13.44;83.10;101232.69;1038984;28;20299;-79
2023/05/05 01:39:40;;;;;;;11.85;6.03;;;;;;;13.33;82.87;101230.75;1043119;28;20310;-78
2023/05/05 01:40:13;;;;;;;6.05;5.45;;;;;;;13.25;82.14;101237.22;1041839;28;20794;-79
2023/05/05 01:40:50;;;;;;;7.22;6.22;;;;;;;13.30;82.45;101230.16;1040462;28;20300;-79
2023/05/05 01:41:28;;;;;;;8.95;6.05;;;;;;;13.46;82.59;101230.59;1040659;28;20304;-79
2023/05/05 01:42:05;;;;;;;6.60;5.90;;;;;;;13.40;83.79;101234.13;1041771;28;20310;-79
2023/05/05 01:42:40;;;;;;;6.22;5.63;;;;;;;13.35;83.45;101234.00;1044836;28;20361;-78
2023/05/05 01:43:13;;;;;;;6.68;5.90;;;;;;;13.48;82.32;101231.19;1052541;28;20301;-79
2023/05/05 01:43:46;;;;;;;10.57;6.72;;;;;;;13.39;82.07;101232.50;1053576;28;20286;-79
2023/05/05 01:44:19;;;;;;;10.57;5.63;;;;;;;13.34;82.61;101224.34;1045687;28;20306;-78
2023/05/05 01:44:52;;;;;;;7.45;6.70;;;;;;;13.41;82.01;101231.25;1039284;28;20822;-78
2023/05/05 01:45:26;;;;;;;6.38;5.78;;;;;;;13.35;82.14;101231.31;1037168;28;20472;-79
2023/05/05 01:45:58;;;;;;;7.38;6.47;;;;;;;13.19;83.36;101238.94;1039898;28;20291;-79
2023/05/05 01:46:31;;;;;;;8.00;7.20;;;;;;;13.15;84.86;101235.03;1043727;28;20804;-79
2023/05/05 01:47:04;;;;;;;6.15;5.65;;;;;;;12.98;86.33;101242.00;1048682;28;20408;-78
2023/05/05 01:47:37;;;;;;;7.00;6.10;;;;;;;12.93;88.45;101247.22;1051888;28;20297;-79
2023/05/05 01:48:11;;;;;;;7.63;6.82;;;;;;;13.15;87.97;101243.06;1047658;28;20393;-79
2023/05/05 01:48:43;;;;;;;9.30;6.55;;;;;;;13.34;86.99;101243.06;1043204;28;20524;-79
2023/05/05 01:49:15;;;;;;;8.70;6.55;;;;;;;13.35;86.43;101242.84;1039347;28;20044;-79
2023/05/05 01:49:47;;;;;;;7.93;6.20;;;;;;;13.40;84.90;101242.16;1041313;28;20658;-78
2023/05/05 01:50:21;;;;;;;11.40;6.85;;;;;;;13.19;84.54;101236.25;1042436;28;20326;-79
2023/05/05 01:50:53;;;;;;;9.93;6.32;;;;;;;13.06;83.72;101233.69;1044431;28;20468;-79
2023/05/05 01:51:27;;;;;;;10.13;6.22;;;;;;;13.12;83.28;101238.13;1047438;28;20733;-79
2023/05/05 01:51:59;;;;;;;10.05;6.30;;;;;;;13.25;82.69;101235.34;1044346;28;20307;-79
2023/05/05 01:52:33;;;;;;;8.02;5.18;;;;;;;13.27;83.09;101235.94;1044290;28;20353;-79
2023/05/05 01:53:06;;;;;;;6.22;5.40;;;;;;;13.16;83.05;101243.88;1043003;28;20689;-79
2023/05/05 01:53:38;;;;;;;8.48;7.32;;;;;;;13.20;82.91;101243.25;1047439;28;20305;-79
2023/05/05 01:54:10;;;;;;;10.75;6.97;;;;;;;13.17;82.15;101243.69;1048257;28;20855;-79
2023/05/05 01:54:43;;;;;;;8.90;6.78;;;;;;;13.15;82.37;101248.41;1043984;28;20315;-79
2023/05/05 01:55:16;;;;;;;8.43;6.13;;;;;;;13.06;84.75;101247.06;1046684;28;20356;-79
2023/05/05 01:55:49;;;;;;;16.67;7.55;;;;;;;13.10;85.34;101250.91;1040624;28;20303;-79
2023/05/05 01:56:23;;;;;;;7.60;6.90;;;;;;;13.12;86.78;101248.03;1043124;28;20311;-79
2023/05/05 01:56:56;;;;;;;8.52;6.15;;;;;;;12.99;88.29;101249.00;1039353;28;20304;-79
2023/05/05 01:57:29;;;;;;;7.57;5.97;;;;;;;12.99;88.37;101251.66;1043504;28;20300;-79
2023/05/05 01:58:02;;;;;;;7.57;6.55;;;;;;;13.08;88.26;101250.31;1038410;28;20823;-79
2023/05/05 01:58:34;;;;;;;9.70;7.18;;;;;;;12.91;90.06;101262.66;1040407;28;20783;-79
2023/05/05 01:59:08;;;;;;;8.05;6.85;;;;;;;12.92;90.24;101261.63;1031912;28;20307;-79
2023/05/05 01:59:40;;;;;;;7.53;6.10;;;;;;;12.94;89.89;101254.19;1038611;28;20297;-79
2023/05/05 02:00:15;;;;;;;8.48;7.68;;;;;;;12.99;88.30;101254.34;1040318;28;20638;-79
2023/05/05 02:00:49;;;;;;;9.52;7.40;;;;;;;13.01;87.69;101257.63;1036934;28;20679;-78
2023/05/05 02:01:23;;;;;;;8.10;6.50;;;;;;;13.09;87.19;101257.31;1041888;28;20654;-79
2023/05/05 02:01:56;;;;;;;12.32;7.13;;;;;;;13.12;86.04;101261.41;1038952;28;20315;-79
2023/05/05 02:02:30;;;;;;;15.00;6.78;;;;;;;13.13;84.97;101261.16;1040725;28;20718;-79
2023/05/05 02:03:03;;;;;;;11.45;6.55;;;;;;;13.16;84.47;101255.41;1039483;28;20303;-79
2023/05/05 02:03:36;;;;;;;13.13;6.93;;;;;;;13.18;85.51;101248.00;1035032;28;20883;-79
2023/05/05 02:04:08;;;;;;;11.07;7.53;;;;;;;13.25;82.92;101248.72;1040427;28;20307;-79
2023/05/05 02:04:42;;;;;;;11.52;7.25;;;;;;;13.25;83.30;101246.06;1039939;28;20116;-79
2023/05/05 02:05:15;;;;;;;7.20;6.32;;;;;;;13.19;84.91;101249.63;1044341;28;20293;-79
2023/05/05 02:05:47;;;;;;;15.60;7.22;;;;;;;13.24;84.90;101252.44;1045595;28;20291;-79
2023/05/05 02:06:20;;;;;;;12.38;7.38;;;;;;;13.20;86.08;101256.63;1044224;28;20311;-79
2023/05/05 02:06:52;;;;;;;9.85;6.18;;;;;;;13.16;86.77;101270.63;1043097;28;20057;-79
2023/05/05 02:07:25;;;;;;;7.68;6.88;;;;;;;13.07;87.60;101262.06;1043295;28;20419;-79
2023/05/05 02:07:57;;;;;;;7.82;6.35;;;;;;;13.06;87.79;101260.44;1039122;28;20042;-79
2023/05/05 02:08:29;;;;;;;8.50;5.95;;;;;;;13.10;87.33;101261.63;1044959;28;20299;-79
2023/05/05 02:09:02;;;;;;;6.40;5.90;;;;;;;13.16;86.85;101265.28;1047366;28;20044;-79
2023/05/05 02:09:35;;;;;;;7.20;6.35;;;;;;;13.17;87.73;101266.91;1047225;28;20302;-79
2023/05/05 02:10:07;;;;;;;11.60;6.70;;;;;;;13.18;87.89;101269.41;1043568;28;20299;-79
2023/05/05 02:10:39;;;;;;;9.60;6.72;;;;;;;13.15;87.58;101267.16;1044198;28;20377;-79
2023/05/05 02:11:11;;;;;;;6.90;6.28;;;;;;;13.15;88.23;101280.53;1044030;28;20306;-79
2023/05/05 02:11:43;;;;;;;11.85;6.78;;;;;;;13.09;88.49;101273.34;1043967;28;20044;-79
2023/05/05 02:12:15;;;;;;;8.00;6.82;;;;;;;13.11;89.25;101278.47;1047397;28;20657;-79
2023/05/05 02:12:47;;;;;;;8.27;6.85;;;;;;;13.11;88.70;101284.66;1038386;28;20353;-79
2023/05/05 02:13:19;;;;;;;9.05;6.88;;;;;;;13.10;89.01;101283.00;1046669;28;20653;-79
2023/05/05 02:13:52;;;;;;;6.63;5.93;;;;;;;13.08;90.13;101285.09;1035128;28;20220;-79
2023/05/05 02:14:26;;;;;;;8.15;5.78;;;;;;;13.01;90.75;101284.34;1039169;28;20478;-79
2023/05/05 02:14:59;;;;;;;12.80;6.38;;;;;;;13.04;90.43;101278.56;1035764;28;20042;-79
2023/05/05 02:15:32;;;;;;;9.10;6.13;;;;;;;13.00;90.19;101277.38;1043972;28;20346;-79
2023/05/05 02:16:05;;;;;;;6.90;6.18;;;;;;;12.92;90.75;101280.34;1047108;28;20832;-79
2023/05/05 02:16:37;;;;;;;6.82;6.05;;;;;;;13.02;90.73;101269.94;1048571;28;20060;-79
2023/05/05 02:17:10;;;;;;;7.32;6.50;;;;;;;13.00;90.06;101272.03;1036309;28;20393;-79
2023/05/05 02:17:42;;;;;;;7.55;6.85;;;;;;;12.93;88.97;101271.28;1035573;28;20042;-79
2023/05/05 02:18:14;;;;;;;6.43;5.82;;;;;;;12.99;88.27;101270.38;1044088;28;20037;-79
2023/05/05 02:18:46;;;;;;;7.65;6.45;;;;;;;12.94;89.42;101267.56;1050264;28;20051;-79
2023/05/05 02:19:20;;;;;;;9.32;6.45;;;;;;;12.98;90.33;101274.09;1053605;28;20036;-79
2023/05/05 02:19:53;;;;;;;9.80;6.35;;;;;;;12.94;90.30;101276.41;1045920;28;20048;-79
2023/05/05 02:20:26;;;;;;;6.65;6.05;;;;;;;12.97;91.41;101277.81;1039187;28;20045;-79
2023/05/05 02:20:58;;;;;;;8.65;7.18;;;;;;;12.97;91.58;101283.16;1038912;28;20041;-79
2023/05/05 02:21:30;;;;;;;7.15;6.32;;;;;;;13.02;90.60;101275.28;1040204;28;20042;-79
2023/05/05 02:22:02;;;;;;;8.98;6.45;;;;;;;13.10;88.97;101279.53;1043756;28;20051;-79
2023/05/05 02:22:34;;;;;;;10.93;6.43;;;;;;;13.14;88.10;101273.50;1043460;28;20044;-78
2023/05/05 02:23:06;;;;;;;8.20;6.93;;;;;;;13.04;88.08;101270.53;1039388;28;20041;-79
2023/05/05 02:23:38;;;;;;;9.73;6.70;;;;;;;13.09;88.85;101275.22;1035839;28;20038;-78
2023/05/05 02:24:10;;;;;;;7.32;6.57;;;;;;;13.06;88.53;101276.47;1035707;28;20038;-79
2023/05/05 02:24:42;;;;;;;8.38;6.78;;;;;;;13.08;87.86;101279.75;1035831;28;20052;-79
2023/05/05 02:25:16;;;;;;;7.28;6.45;;;;;;;13.07;87.08;101271.94;1039576;28;20045;-79
2023/05/05 02:25:49;;;;;;;8.13;6.95;;;;;;;13.15;87.07;101279.69;1044473;28;20088;-79
2023/05/05 02:26:21;;;;;;;8.00;6.43;;;;;;;13.18;86.73;101280.09;1043976;28;20052;-78
2023/05/05 02:26:53;;;;;;;13.02;6.80;;;;;;;13.20;86.81;101283.38;1043250;28;20495;-79
2023/05/05 02:27:25;;;;;;;11.82;7.57;;;;;;;13.21;85.73;101282.31;1042487;28;20546;-78
2023/05/05 02:27:58;;;;;;;7.75;6.97;;;;;;;13.20;85.45;101278.03;1040010;28;20053;-79
2023/05/05 02:28:48;;;;;;;9.27;7.47;;;;;;;13.17;85.76;101282.97;1040552;28;20101;-79
2023/05/05 02:29:31;;;;;;;9.32;6.97;;;;;;;13.18;86.15;101279.28;1046511;28;20173;-79
2023/05/05 02:30:07;;;;;;;10.00;6.68;;;;;;;13.19;86.76;101281.75;1039276;28;20041;-79
2023/05/05 02:30:41;;;;;;;7.40;6.57;;;;;;;13.24;86.70;101281.06;1047038;28;20052;-79
2023/05/05 02:31:13;;;;;;;13.10;7.15;;;;;;;13.25;86.21;101278.16;1039894;28;20060;-79
2023/05/05 02:31:49;;;;;;;9.00;6.43;;;;;;;13.08;87.78;101285.09;1044469;28;20067;-79
2023/05/05 02:32:39;;;;;;;8.27;7.40;;;;;;;13.22;87.18;101283.97;1034414;28;20049;-79
2023/05/05 02:33:14;;;;;;;10.63;6.88;;;;;;;13.24;87.18;101284.56;1039213;28;20326;-79
2023/05/05 02:33:47;;;;;;;8.45;7.25;;;;;;;13.34;86.92;101288.56;1042948;28;20064;-79
2023/05/05 02:34:24;;;;;;;11.85;8.35;;;;;;;13.32;86.32;101287.97;1038814;28;20057;-78
2023/05/05 02:34:57;;;;;;;8.77;7.88;;;;;;;13.34;86.42;101277.84;1034614;28;20174;-79
2023/05/05 02:35:38;;;;;;;8.55;7.60;;;;;;;13.35;84.74;101280.31;1039117;28;20156;-78
2023/05/05 02:36:19;;;;;;;12.77;7.32;;;;;;;13.32;84.59;101275.41;1047013;28;20042;-78
2023/05/05 02:36:59;;;;;;;12.57;7.65;;;;;;;13.32;83.98;101282.63;1047713;28;20041;-79
2023/05/05 02:37:35;;;;;;;10.63;7.35;;;;;;;13.36;84.73;101270.41;1041393;28;20041;-79
2023/05/05 02:38:12;;;;;;;9.60;6.90;;;;;;;13.43;84.81;101279.22;1038386;28;20048;-78
2023/05/05 02:38:46;;;;;;;13.77;8.70;;;;;;;13.42;85.47;101274.88;1038328;28;20041;-78
2023/05/05 02:39:31;;;;;;;15.43;8.07;;;;;;;13.48;84.85;101279.34;1031747;28;20038;-79
2023/05/05 02:40:07;;;;;;;11.60;8.00;;;;;;;13.50;84.08;101279.94;1040668;28;20049;-78
2023/05/05 02:40:41;;;;;;;10.38;8.38;;;;;;;13.51;83.80;101270.88;1045077;28;20202;-79
2023/05/05 02:41:16;;;;;;;9.93;8.68;;;;;;;13.48;84.26;101274.00;1043517;28;20064;-79